sensor_id;sensor_type;location;lat;lon;timestamp;P1;durP1;ratioP1;P2;durP2;ratioP2
33954;SDS011;20233;50.804;7.126;2023-04-21T00:00:53;26.25;;;18.50;;
33954;SDS011;20233;50.804;7.126;2023-04-21T00:03:19;25.50;;;18.65;;
33954;SDS011;20233;50.804;7.126;2023-04-21T00:05:47;26.88;;;20.17;;
33954;SDS011;20233;50.804;7.126;2023-04-21T00:08:13;27.38;;;19.25;;
33954;SDS011;20233;50.804;7.126;2023-04-21T00:10:39;26.02;;;19.30;;
33954;SDS011;20233;50.804;7.126;2023-04-21T00:13:05;29.63;;;21.75;;
33954;SDS011;20233;50.804;7.126;2023-04-21T00:15:31;30.45;;;22.55;;
33954;SDS011;20233;50.804;7.126;2023-04-21T00:17:56;28.90;;;21.23;;
33954;SDS011;20233;50.804;7.126;2023-04-21T00:20:22;27.58;;;21.08;;
33954;SDS011;20233;50.804;7.126;2023-04-21T00:22:50;31.67;;;21.38;;
33954;SDS011;20233;50.804;7.126;2023-04-21T00:25:25;30.70;;;21.40;;
33954;SDS011;20233;50.804;7.126;2023-04-21T00:27:51;25.60;;;19.23;;
33954;SDS011;20233;50.804;7.126;2023-04-21T00:30:17;30.33;;;21.35;;
33954;SDS011;20233;50.804;7.126;2023-04-21T00:32:42;28.08;;;18.80;;
33954;SDS011;20233;50.804;7.126;2023-04-21T00:35:08;26.75;;;20.00;;
33954;SDS011;20233;50.804;7.126;2023-04-21T00:37:34;26.17;;;19.20;;
33954;SDS011;20233;50.804;7.126;2023-04-21T00:40:00;28.23;;;19.67;;
33954;SDS011;20233;50.804;7.126;2023-04-21T00:42:26;30.88;;;21.30;;
33954;SDS011;20233;50.804;7.126;2023-04-21T00:44:51;31.45;;;21.10;;
33954;SDS011;20233;50.804;7.126;2023-04-21T00:47:18;28.20;;;20.23;;
33954;SDS011;20233;50.804;7.126;2023-04-21T00:49:44;29.95;;;21.15;;
33954;SDS011;20233;50.804;7.126;2023-04-21T00:52:10;27.23;;;19.52;;
33954;SDS011;20233;50.804;7.126;2023-04-21T00:54:35;28.92;;;20.63;;
33954;SDS011;20233;50.804;7.126;2023-04-21T00:57:01;30.60;;;21.25;;
33954;SDS011;20233;50.804;7.126;2023-04-21T00:59:27;29.95;;;19.85;;
33954;SDS011;20233;50.804;7.126;2023-04-21T01:01:53;30.67;;;21.70;;
33954;SDS011;20233;50.804;7.126;2023-04-21T01:04:19;30.92;;;21.17;;
33954;SDS011;20233;50.804;7.126;2023-04-21T01:06:45;29.75;;;21.00;;
33954;SDS011;20233;50.804;7.126;2023-04-21T01:09:11;29.23;;;20.85;;
33954;SDS011;20233;50.804;7.126;2023-04-21T01:11:37;29.45;;;20.10;;
33954;SDS011;20233;50.804;7.126;2023-04-21T01:14:03;32.45;;;22.83;;
33954;SDS011;20233;50.804;7.126;2023-04-21T01:16:29;29.38;;;21.30;;
33954;SDS011;20233;50.804;7.126;2023-04-21T01:18:56;33.03;;;22.95;;
33954;SDS011;20233;50.804;7.126;2023-04-21T01:21:23;30.35;;;21.75;;
33954;SDS011;20233;50.804;7.126;2023-04-21T01:23:48;30.17;;;20.52;;
33954;SDS011;20233;50.804;7.126;2023-04-21T01:26:23;31.08;;;22.05;;
33954;SDS011;20233;50.804;7.126;2023-04-21T01:28:49;32.10;;;20.88;;
33954;SDS011;20233;50.804;7.126;2023-04-21T01:31:15;32.08;;;21.77;;
33954;SDS011;20233;50.804;7.126;2023-04-21T01:33:40;31.75;;;21.38;;
33954;SDS011;20233;50.804;7.126;2023-04-21T01:36:07;31.67;;;22.45;;
33954;SDS011;20233;50.804;7.126;2023-04-21T01:38:38;32.83;;;21.83;;
33954;SDS011;20233;50.804;7.126;2023-04-21T01:41:07;31.42;;;21.92;;
33954;SDS011;20233;50.804;7.126;2023-04-21T01:43:33;31.08;;;21.92;;
33954;SDS011;20233;50.804;7.126;2023-04-21T01:45:59;32.75;;;21.60;;
33954;SDS011;20233;50.804;7.126;2023-04-21T01:48:25;31.17;;;22.65;;
33954;SDS011;20233;50.804;7.126;2023-04-21T01:50:50;33.03;;;21.88;;
33954;SDS011;20233;50.804;7.126;2023-04-21T01:53:16;33.67;;;22.73;;
33954;SDS011;20233;50.804;7.126;2023-04-21T01:55:41;34.45;;;23.08;;
33954;SDS011;20233;50.804;7.126;2023-04-21T01:58:07;30.80;;;22.02;;
33954;SDS011;20233;50.804;7.126;2023-04-21T02:00:32;34.03;;;21.85;;
33954;SDS011;20233;50.804;7.126;2023-04-21T02:02:58;31.20;;;22.92;;
33954;SDS011;20233;50.804;7.126;2023-04-21T02:05:24;30.88;;;22.85;;
33954;SDS011;20233;50.804;7.126;2023-04-21T02:07:49;31.55;;;22.00;;
33954;SDS011;20233;50.804;7.126;2023-04-21T02:10:15;32.45;;;22.02;;
33954;SDS011;20233;50.804;7.126;2023-04-21T02:12:40;30.75;;;20.63;;
33954;SDS011;20233;50.804;7.126;2023-04-21T02:15:06;31.48;;;22.05;;
33954;SDS011;20233;50.804;7.126;2023-04-21T02:17:32;29.40;;;20.92;;
33954;SDS011;20233;50.804;7.126;2023-04-21T02:19:57;28.67;;;21.05;;
33954;SDS011;20233;50.804;7.126;2023-04-21T02:22:23;33.65;;;22.60;;
33954;SDS011;20233;50.804;7.126;2023-04-21T02:24:49;30.35;;;21.45;;
33954;SDS011;20233;50.804;7.126;2023-04-21T02:27:15;30.98;;;22.48;;
33954;SDS011;20233;50.804;7.126;2023-04-21T02:29:40;31.15;;;21.10;;
33954;SDS011;20233;50.804;7.126;2023-04-21T02:32:06;33.22;;;22.20;;
33954;SDS011;20233;50.804;7.126;2023-04-21T02:34:32;34.03;;;22.60;;
33954;SDS011;20233;50.804;7.126;2023-04-21T02:36:57;33.90;;;22.70;;
33954;SDS011;20233;50.804;7.126;2023-04-21T02:39:23;33.65;;;22.05;;
33954;SDS011;20233;50.804;7.126;2023-04-21T02:41:49;32.38;;;21.08;;
33954;SDS011;20233;50.804;7.126;2023-04-21T02:44:15;32.80;;;22.08;;
33954;SDS011;20233;50.804;7.126;2023-04-21T02:46:41;29.27;;;20.60;;
33954;SDS011;20233;50.804;7.126;2023-04-21T02:49:07;32.83;;;21.70;;
33954;SDS011;20233;50.804;7.126;2023-04-21T02:51:33;32.33;;;22.48;;
33954;SDS011;20233;50.804;7.126;2023-04-21T02:53:59;30.33;;;21.75;;
33954;SDS011;20233;50.804;7.126;2023-04-21T02:56:25;35.70;;;24.00;;
33954;SDS011;20233;50.804;7.126;2023-04-21T02:58:50;35.70;;;24.23;;
33954;SDS011;20233;50.804;7.126;2023-04-21T03:01:17;34.75;;;22.80;;
33954;SDS011;20233;50.804;7.126;2023-04-21T03:03:43;34.72;;;22.52;;
33954;SDS011;20233;50.804;7.126;2023-04-21T03:06:09;35.65;;;23.10;;
33954;SDS011;20233;50.804;7.126;2023-04-21T03:08:35;35.30;;;23.00;;
33954;SDS011;20233;50.804;7.126;2023-04-21T03:11:00;38.65;;;25.13;;
33954;SDS011;20233;50.804;7.126;2023-04-21T03:13:26;36.80;;;24.13;;
33954;SDS011;20233;50.804;7.126;2023-04-21T03:15:51;34.55;;;24.52;;
33954;SDS011;20233;50.804;7.126;2023-04-21T03:18:17;36.50;;;23.55;;
33954;SDS011;20233;50.804;7.126;2023-04-21T03:20:44;38.55;;;24.88;;
33954;SDS011;20233;50.804;7.126;2023-04-21T03:23:10;36.78;;;23.83;;
33954;SDS011;20233;50.804;7.126;2023-04-21T03:25:36;36.20;;;24.50;;
33954;SDS011;20233;50.804;7.126;2023-04-21T03:28:02;36.30;;;24.27;;
33954;SDS011;20233;50.804;7.126;2023-04-21T03:30:28;37.53;;;24.23;;
33954;SDS011;20233;50.804;7.126;2023-04-21T03:32:54;40.10;;;25.05;;
33954;SDS011;20233;50.804;7.126;2023-04-21T03:35:20;35.08;;;22.60;;
33954;SDS011;20233;50.804;7.126;2023-04-21T03:37:46;35.47;;;22.75;;
33954;SDS011;20233;50.804;7.126;2023-04-21T03:40:14;40.08;;;24.60;;
33954;SDS011;20233;50.804;7.126;2023-04-21T03:42:39;38.88;;;23.33;;
33954;SDS011;20233;50.804;7.126;2023-04-21T03:45:05;36.33;;;23.77;;
33954;SDS011;20233;50.804;7.126;2023-04-21T03:47:32;36.42;;;24.13;;
33954;SDS011;20233;50.804;7.126;2023-04-21T03:49:58;37.72;;;24.35;;
33954;SDS011;20233;50.804;7.126;2023-04-21T03:52:23;35.85;;;23.27;;
33954;SDS011;20233;50.804;7.126;2023-04-21T03:54:49;39.03;;;24.48;;
33954;SDS011;20233;50.804;7.126;2023-04-21T03:57:15;35.05;;;23.55;;
33954;SDS011;20233;50.804;7.126;2023-04-21T03:59:41;36.05;;;23.60;;
33954;SDS011;20233;50.804;7.126;2023-04-21T04:02:06;40.80;;;24.58;;
33954;SDS011;20233;50.804;7.126;2023-04-21T04:04:32;42.17;;;27.20;;
33954;SDS011;20233;50.804;7.126;2023-04-21T04:06:58;42.90;;;25.63;;
33954;SDS011;20233;50.804;7.126;2023-04-21T04:09:25;40.40;;;25.88;;
33954;SDS011;20233;50.804;7.126;2023-04-21T04:11:50;39.50;;;25.38;;
33954;SDS011;20233;50.804;7.126;2023-04-21T04:14:16;39.42;;;25.38;;
33954;SDS011;20233;50.804;7.126;2023-04-21T04:16:42;40.70;;;24.50;;
33954;SDS011;20233;50.804;7.126;2023-04-21T04:19:07;37.80;;;23.73;;
33954;SDS011;20233;50.804;7.126;2023-04-21T04:21:33;40.92;;;24.98;;
33954;SDS011;20233;50.804;7.126;2023-04-21T04:23:59;37.20;;;22.77;;
33954;SDS011;20233;50.804;7.126;2023-04-21T04:26:26;37.92;;;23.92;;
33954;SDS011;20233;50.804;7.126;2023-04-21T04:28:52;41.50;;;25.15;;
33954;SDS011;20233;50.804;7.126;2023-04-21T04:31:20;41.28;;;24.15;;
33954;SDS011;20233;50.804;7.126;2023-04-21T04:33:46;42.58;;;26.52;;
33954;SDS011;20233;50.804;7.126;2023-04-21T04:36:12;42.95;;;26.30;;
33954;SDS011;20233;50.804;7.126;2023-04-21T04:38:38;41.97;;;27.25;;
33954;SDS011;20233;50.804;7.126;2023-04-21T04:41:04;44.92;;;26.58;;
33954;SDS011;20233;50.804;7.126;2023-04-21T04:43:30;41.20;;;25.48;;
33954;SDS011;20233;50.804;7.126;2023-04-21T04:46:00;41.37;;;23.37;;
33954;SDS011;20233;50.804;7.126;2023-04-21T04:48:26;39.17;;;24.30;;
33954;SDS011;20233;50.804;7.126;2023-04-21T04:50:54;43.05;;;25.85;;
33954;SDS011;20233;50.804;7.126;2023-04-21T04:53:19;42.58;;;24.35;;
33954;SDS011;20233;50.804;7.126;2023-04-21T04:55:45;42.65;;;25.02;;
33954;SDS011;20233;50.804;7.126;2023-04-21T04:58:11;46.17;;;26.75;;
33954;SDS011;20233;50.804;7.126;2023-04-21T05:00:37;42.25;;;25.98;;
33954;SDS011;20233;50.804;7.126;2023-04-21T05:03:02;41.13;;;24.00;;
33954;SDS011;20233;50.804;7.126;2023-04-21T05:05:28;38.63;;;23.55;;
33954;SDS011;20233;50.804;7.126;2023-04-21T05:07:57;44.45;;;26.17;;
33954;SDS011;20233;50.804;7.126;2023-04-21T05:10:22;42.70;;;25.27;;
33954;SDS011;20233;50.804;7.126;2023-04-21T05:12:48;39.78;;;23.98;;
33954;SDS011;20233;50.804;7.126;2023-04-21T05:15:14;41.53;;;24.83;;
33954;SDS011;20233;50.804;7.126;2023-04-21T05:17:40;46.42;;;25.98;;
33954;SDS011;20233;50.804;7.126;2023-04-21T05:20:06;44.83;;;25.83;;
33954;SDS011;20233;50.804;7.126;2023-04-21T05:22:36;42.33;;;26.13;;
33954;SDS011;20233;50.804;7.126;2023-04-21T05:25:02;41.65;;;26.00;;
33954;SDS011;20233;50.804;7.126;2023-04-21T05:27:29;40.90;;;24.45;;
33954;SDS011;20233;50.804;7.126;2023-04-21T05:29:54;39.47;;;24.58;;
33954;SDS011;20233;50.804;7.126;2023-04-21T05:32:21;41.70;;;24.30;;
33954;SDS011;20233;50.804;7.126;2023-04-21T05:34:48;41.60;;;24.73;;
33954;SDS011;20233;50.804;7.126;2023-04-21T05:37:14;41.40;;;24.65;;
33954;SDS011;20233;50.804;7.126;2023-04-21T05:39:41;43.78;;;25.58;;
33954;SDS011;20233;50.804;7.126;2023-04-21T05:42:09;37.83;;;24.85;;
33954;SDS011;20233;50.804;7.126;2023-04-21T05:44:38;43.47;;;26.02;;
33954;SDS011;20233;50.804;7.126;2023-04-21T05:47:05;42.45;;;25.55;;
33954;SDS011;20233;50.804;7.126;2023-04-21T05:49:32;43.45;;;26.30;;
33954;SDS011;20233;50.804;7.126;2023-04-21T05:51:58;43.17;;;25.65;;
33954;SDS011;20233;50.804;7.126;2023-04-21T05:54:24;45.22;;;25.77;;
33954;SDS011;20233;50.804;7.126;2023-04-21T05:56:50;44.85;;;26.35;;
33954;SDS011;20233;50.804;7.126;2023-04-21T05:59:16;46.40;;;26.98;;
33954;SDS011;20233;50.804;7.126;2023-04-21T06:01:43;49.42;;;27.15;;
33954;SDS011;20233;50.804;7.126;2023-04-21T06:04:09;44.35;;;25.02;;
33954;SDS011;20233;50.804;7.126;2023-04-21T06:06:36;42.47;;;25.88;;
33954;SDS011;20233;50.804;7.126;2023-04-21T06:09:03;44.13;;;25.50;;
33954;SDS011;20233;50.804;7.126;2023-04-21T06:11:29;45.97;;;26.15;;
33954;SDS011;20233;50.804;7.126;2023-04-21T06:13:57;44.42;;;25.98;;
33954;SDS011;20233;50.804;7.126;2023-04-21T06:16:24;42.70;;;26.20;;
33954;SDS011;20233;50.804;7.126;2023-04-21T06:18:51;48.47;;;27.10;;
33954;SDS011;20233;50.804;7.126;2023-04-21T06:21:17;49.30;;;27.88;;
33954;SDS011;20233;50.804;7.126;2023-04-21T06:23:44;46.05;;;27.02;;
33954;SDS011;20233;50.804;7.126;2023-04-21T06:26:10;47.90;;;27.75;;
33954;SDS011;20233;50.804;7.126;2023-04-21T06:28:38;45.90;;;27.50;;
33954;SDS011;20233;50.804;7.126;2023-04-21T06:31:05;46.97;;;27.67;;
33954;SDS011;20233;50.804;7.126;2023-04-21T06:33:34;45.72;;;28.45;;
33954;SDS011;20233;50.804;7.126;2023-04-21T06:36:01;45.33;;;28.02;;
33954;SDS011;20233;50.804;7.126;2023-04-21T06:38:27;49.28;;;28.77;;
33954;SDS011;20233;50.804;7.126;2023-04-21T06:40:53;47.47;;;29.08;;
33954;SDS011;20233;50.804;7.126;2023-04-21T06:43:19;48.88;;;29.38;;
33954;SDS011;20233;50.804;7.126;2023-04-21T06:45:46;46.72;;;27.83;;
33954;SDS011;20233;50.804;7.126;2023-04-21T06:48:13;47.15;;;27.63;;
33954;SDS011;20233;50.804;7.126;2023-04-21T06:50:40;47.83;;;28.60;;
33954;SDS011;20233;50.804;7.126;2023-04-21T06:53:09;46.58;;;26.90;;
33954;SDS011;20233;50.804;7.126;2023-04-21T06:55:36;41.70;;;26.77;;
33954;SDS011;20233;50.804;7.126;2023-04-21T06:58:03;44.28;;;27.38;;
33954;SDS011;20233;50.804;7.126;2023-04-21T07:00:30;41.00;;;26.40;;
33954;SDS011;20233;50.804;7.126;2023-04-21T07:02:57;36.88;;;23.40;;
33954;SDS011;20233;50.804;7.126;2023-04-21T07:05:23;37.65;;;23.77;;
33954;SDS011;20233;50.804;7.126;2023-04-21T07:07:52;37.15;;;23.75;;
33954;SDS011;20233;50.804;7.126;2023-04-21T07:10:21;36.08;;;23.40;;
33954;SDS011;20233;50.804;7.126;2023-04-21T07:12:48;37.03;;;22.83;;
33954;SDS011;20233;50.804;7.126;2023-04-21T07:15:15;32.05;;;21.73;;
33954;SDS011;20233;50.804;7.126;2023-04-21T07:17:43;33.17;;;21.60;;
33954;SDS011;20233;50.804;7.126;2023-04-21T07:20:10;36.65;;;22.88;;
33954;SDS011;20233;50.804;7.126;2023-04-21T07:22:37;32.95;;;21.33;;
33954;SDS011;20233;50.804;7.126;2023-04-21T07:25:04;32.17;;;22.17;;
33954;SDS011;20233;50.804;7.126;2023-04-21T07:27:34;33.00;;;21.40;;
33954;SDS011;20233;50.804;7.126;2023-04-21T07:30:02;31.65;;;21.30;;
33954;SDS011;20233;50.804;7.126;2023-04-21T07:32:32;31.58;;;20.85;;
33954;SDS011;20233;50.804;7.126;2023-04-21T07:35:00;33.88;;;22.05;;
33954;SDS011;20233;50.804;7.126;2023-04-21T07:37:27;33.10;;;20.65;;
33954;SDS011;20233;50.804;7.126;2023-04-21T07:39:54;31.40;;;21.13;;
33954;SDS011;20233;50.804;7.126;2023-04-21T07:42:20;31.33;;;20.85;;
33954;SDS011;20233;50.804;7.126;2023-04-21T07:44:47;30.20;;;20.63;;
33954;SDS011;20233;50.804;7.126;2023-04-21T07:47:13;31.42;;;20.85;;
33954;SDS011;20233;50.804;7.126;2023-04-21T07:49:41;30.40;;;19.27;;
33954;SDS011;20233;50.804;7.126;2023-04-21T07:52:07;31.42;;;20.67;;
33954;SDS011;20233;50.804;7.126;2023-04-21T07:54:34;30.20;;;19.02;;
33954;SDS011;20233;50.804;7.126;2023-04-21T07:57:01;28.27;;;19.20;;
33954;SDS011;20233;50.804;7.126;2023-04-21T07:59:28;30.23;;;19.67;;
33954;SDS011;20233;50.804;7.126;2023-04-21T08:01:55;30.75;;;20.45;;
33954;SDS011;20233;50.804;7.126;2023-04-21T08:04:21;30.23;;;20.55;;
33954;SDS011;20233;50.804;7.126;2023-04-21T08:06:50;27.35;;;18.10;;
33954;SDS011;20233;50.804;7.126;2023-04-21T08:09:17;31.35;;;18.80;;
33954;SDS011;20233;50.804;7.126;2023-04-21T08:11:44;26.05;;;18.45;;
33954;SDS011;20233;50.804;7.126;2023-04-21T08:14:12;27.10;;;18.88;;
33954;SDS011;20233;50.804;7.126;2023-04-21T08:16:39;31.58;;;19.95;;
33954;SDS011;20233;50.804;7.126;2023-04-21T08:19:07;29.23;;;18.90;;
33954;SDS011;20233;50.804;7.126;2023-04-21T08:21:35;27.13;;;18.20;;
33954;SDS011;20233;50.804;7.126;2023-04-21T08:24:02;27.67;;;18.55;;
33954;SDS011;20233;50.804;7.126;2023-04-21T08:26:29;27.25;;;19.35;;
33954;SDS011;20233;50.804;7.126;2023-04-21T08:28:58;28.52;;;18.92;;
33954;SDS011;20233;50.804;7.126;2023-04-21T08:31:25;28.20;;;19.27;;
33954;SDS011;20233;50.804;7.126;2023-04-21T08:33:52;25.73;;;17.40;;
33954;SDS011;20233;50.804;7.126;2023-04-21T08:36:19;24.63;;;17.02;;
33954;SDS011;20233;50.804;7.126;2023-04-21T08:38:45;26.05;;;17.58;;
33954;SDS011;20233;50.804;7.126;2023-04-21T08:41:11;27.13;;;18.33;;
33954;SDS011;20233;50.804;7.126;2023-04-21T08:43:38;27.40;;;18.48;;
33954;SDS011;20233;50.804;7.126;2023-04-21T08:46:06;25.17;;;17.65;;
33954;SDS011;20233;50.804;7.126;2023-04-21T08:48:34;27.08;;;17.58;;
33954;SDS011;20233;50.804;7.126;2023-04-21T08:51:06;25.08;;;16.52;;
33954;SDS011;20233;50.804;7.126;2023-04-21T08:53:34;25.15;;;17.45;;
33954;SDS011;20233;50.804;7.126;2023-04-21T08:56:02;26.75;;;16.40;;
33954;SDS011;20233;50.804;7.126;2023-04-21T08:58:28;24.23;;;15.30;;
33954;SDS011;20233;50.804;7.126;2023-04-21T09:00:55;25.13;;;17.80;;
33954;SDS011;20233;50.804;7.126;2023-04-21T09:03:25;23.58;;;15.82;;
33954;SDS011;20233;50.804;7.126;2023-04-21T09:08:27;24.75;;;17.35;;
33954;SDS011;20233;50.804;7.126;2023-04-21T09:10:56;26.25;;;17.67;;
33954;SDS011;20233;50.804;7.126;2023-04-21T09:13:31;23.20;;;16.05;;
33954;SDS011;20233;50.804;7.126;2023-04-21T09:15:59;27.85;;;16.77;;
33954;SDS011;20233;50.804;7.126;2023-04-21T09:18:27;25.23;;;17.02;;
33954;SDS011;20233;50.804;7.126;2023-04-21T09:21:07;26.25;;;16.58;;
33954;SDS011;20233;50.804;7.126;2023-04-21T09:23:39;24.70;;;16.73;;
33954;SDS011;20233;50.804;7.126;2023-04-21T09:26:11;22.33;;;15.80;;
33954;SDS011;20233;50.804;7.126;2023-04-21T09:28:43;23.50;;;17.13;;
33954;SDS011;20233;50.804;7.126;2023-04-21T09:31:16;27.45;;;16.40;;
33954;SDS011;20233;50.804;7.126;2023-04-21T09:33:46;24.02;;;16.80;;
33954;SDS011;20233;50.804;7.126;2023-04-21T09:36:17;24.52;;;16.23;;
33954;SDS011;20233;50.804;7.126;2023-04-21T09:39:03;23.65;;;15.70;;
33954;SDS011;20233;50.804;7.126;2023-04-21T09:41:31;24.88;;;16.50;;
33954;SDS011;20233;50.804;7.126;2023-04-21T09:43:59;24.45;;;16.42;;
33954;SDS011;20233;50.804;7.126;2023-04-21T09:46:28;20.98;;;15.15;;
33954;SDS011;20233;50.804;7.126;2023-04-21T09:48:57;26.13;;;16.60;;
33954;SDS011;20233;50.804;7.126;2023-04-21T09:51:28;23.58;;;15.90;;
33954;SDS011;20233;50.804;7.126;2023-04-21T09:53:58;22.25;;;15.55;;
33954;SDS011;20233;50.804;7.126;2023-04-21T09:56:31;24.17;;;16.80;;
33954;SDS011;20233;50.804;7.126;2023-04-21T09:59:04;23.52;;;15.85;;
33954;SDS011;20233;50.804;7.126;2023-04-21T10:01:33;24.85;;;15.82;;
33954;SDS011;20233;50.804;7.126;2023-04-21T10:04:03;24.02;;;16.75;;
33954;SDS011;20233;50.804;7.126;2023-04-21T10:06:30;22.52;;;15.70;;
33954;SDS011;20233;50.804;7.126;2023-04-21T10:08:58;22.80;;;14.95;;
33954;SDS011;20233;50.804;7.126;2023-04-21T10:11:29;19.60;;;14.20;;
33954;SDS011;20233;50.804;7.126;2023-04-21T10:13:58;23.48;;;15.07;;
33954;SDS011;20233;50.804;7.126;2023-04-21T10:16:25;18.67;;;14.40;;
33954;SDS011;20233;50.804;7.126;2023-04-21T10:18:51;20.38;;;14.18;;
33954;SDS011;20233;50.804;7.126;2023-04-21T10:21:18;20.38;;;13.73;;
33954;SDS011;20233;50.804;7.126;2023-04-21T10:23:49;20.00;;;14.55;;
33954;SDS011;20233;50.804;7.126;2023-04-21T10:26:34;19.13;;;12.93;;
33954;SDS011;20233;50.804;7.126;2023-04-21T10:29:04;20.90;;;14.13;;
33954;SDS011;20233;50.804;7.126;2023-04-21T10:31:35;23.02;;;13.73;;
33954;SDS011;20233;50.804;7.126;2023-04-21T10:34:17;19.58;;;13.38;;
33954;SDS011;20233;50.804;7.126;2023-04-21T10:39:30;19.60;;;12.60;;
33954;SDS011;20233;50.804;7.126;2023-04-21T10:50:00;18.90;;;13.45;;
33954;SDS011;20233;50.804;7.126;2023-04-21T10:52:38;18.83;;;12.35;;
33954;SDS011;20233;50.804;7.126;2023-04-21T10:55:08;19.23;;;13.27;;
33954;SDS011;20233;50.804;7.126;2023-04-21T10:57:37;18.08;;;12.25;;
33954;SDS011;20233;50.804;7.126;2023-04-21T11:00:06;14.35;;;10.05;;
33954;SDS011;20233;50.804;7.126;2023-04-21T11:02:34;16.73;;;11.45;;
33954;SDS011;20233;50.804;7.126;2023-04-21T11:05:01;16.00;;;11.88;;
33954;SDS011;20233;50.804;7.126;2023-04-21T11:07:27;15.98;;;11.38;;
33954;SDS011;20233;50.804;7.126;2023-04-21T11:09:59;19.10;;;11.82;;
33954;SDS011;20233;50.804;7.126;2023-04-21T11:12:27;18.75;;;11.50;;
33954;SDS011;20233;50.804;7.126;2023-04-21T11:14:55;14.82;;;10.10;;
33954;SDS011;20233;50.804;7.126;2023-04-21T11:17:22;15.88;;;10.38;;
33954;SDS011;20233;50.804;7.126;2023-04-21T11:19:50;14.32;;;10.13;;
33954;SDS011;20233;50.804;7.126;2023-04-21T11:22:24;15.55;;;10.77;;
33954;SDS011;20233;50.804;7.126;2023-04-21T11:24:52;15.85;;;10.70;;
33954;SDS011;20233;50.804;7.126;2023-04-21T11:27:20;11.88;;;9.02;;
33954;SDS011;20233;50.804;7.126;2023-04-21T11:29:50;11.82;;;8.55;;
33954;SDS011;20233;50.804;7.126;2023-04-21T11:32:17;10.13;;;8.13;;
33954;SDS011;20233;50.804;7.126;2023-04-21T11:34:45;12.52;;;9.02;;
33954;SDS011;20233;50.804;7.126;2023-04-21T11:37:14;10.77;;;7.20;;
33954;SDS011;20233;50.804;7.126;2023-04-21T11:39:46;8.75;;;6.25;;
33954;SDS011;20233;50.804;7.126;2023-04-21T11:42:20;8.57;;;6.25;;
33954;SDS011;20233;50.804;7.126;2023-04-21T11:44:47;10.10;;;6.25;;
33954;SDS011;20233;50.804;7.126;2023-04-21T11:47:21;10.50;;;7.03;;
33954;SDS011;20233;50.804;7.126;2023-04-21T11:49:53;10.13;;;6.95;;
33954;SDS011;20233;50.804;7.126;2023-04-21T11:54:54;9.10;;;5.28;;
33954;SDS011;20233;50.804;7.126;2023-04-21T11:57:21;8.45;;;5.68;;
33954;SDS011;20233;50.804;7.126;2023-04-21T11:59:50;7.38;;;5.00;;
33954;SDS011;20233;50.804;7.126;2023-04-21T12:02:22;6.13;;;4.43;;
33954;SDS011;20233;50.804;7.126;2023-04-21T12:04:57;7.93;;;5.13;;
33954;SDS011;20233;50.804;7.126;2023-04-21T12:07:23;7.90;;;5.40;;
33954;SDS011;20233;50.804;7.126;2023-04-21T12:09:51;7.22;;;5.65;;
33954;SDS011;20233;50.804;7.126;2023-04-21T12:12:18;7.38;;;5.13;;
33954;SDS011;20233;50.804;7.126;2023-04-21T12:14:47;7.70;;;4.75;;
33954;SDS011;20233;50.804;7.126;2023-04-21T12:17:16;7.03;;;4.57;;
33954;SDS011;20233;50.804;7.126;2023-04-21T12:19:43;6.72;;;4.93;;
33954;SDS011;20233;50.804;7.126;2023-04-21T12:22:14;9.13;;;4.75;;
33954;SDS011;20233;50.804;7.126;2023-04-21T12:24:43;7.95;;;4.65;;
33954;SDS011;20233;50.804;7.126;2023-04-21T12:27:12;7.95;;;5.25;;
33954;SDS011;20233;50.804;7.126;2023-04-21T12:29:41;8.13;;;5.53;;
33954;SDS011;20233;50.804;7.126;2023-04-21T12:32:09;8.93;;;5.88;;
33954;SDS011;20233;50.804;7.126;2023-04-21T12:34:35;7.57;;;5.60;;
33954;SDS011;20233;50.804;7.126;2023-04-21T12:37:01;7.57;;;5.70;;
33954;SDS011;20233;50.804;7.126;2023-04-21T12:39:28;9.02;;;6.60;;
33954;SDS011;20233;50.804;7.126;2023-04-21T12:41:55;7.20;;;5.72;;
33954;SDS011;20233;50.804;7.126;2023-04-21T12:44:22;8.80;;;6.45;;
33954;SDS011;20233;50.804;7.126;2023-04-21T12:46:50;6.70;;;5.03;;
33954;SDS011;20233;50.804;7.126;2023-04-21T12:49:19;7.30;;;5.30;;
33954;SDS011;20233;50.804;7.126;2023-04-21T12:51:47;7.78;;;6.03;;
33954;SDS011;20233;50.804;7.126;2023-04-21T12:54:15;8.10;;;6.38;;
33954;SDS011;20233;50.804;7.126;2023-04-21T12:56:42;9.65;;;6.93;;
33954;SDS011;20233;50.804;7.126;2023-04-21T12:59:09;9.77;;;7.07;;
33954;SDS011;20233;50.804;7.126;2023-04-21T13:01:37;8.32;;;6.35;;
33954;SDS011;20233;50.804;7.126;2023-04-21T13:04:07;8.13;;;6.55;;
33954;SDS011;20233;50.804;7.126;2023-04-21T13:06:35;8.02;;;6.05;;
33954;SDS011;20233;50.804;7.126;2023-04-21T13:09:06;8.32;;;6.40;;
33954;SDS011;20233;50.804;7.126;2023-04-21T13:11:33;9.05;;;7.60;;
33954;SDS011;20233;50.804;7.126;2023-04-21T13:14:00;8.52;;;6.97;;
33954;SDS011;20233;50.804;7.126;2023-04-21T13:16:28;9.18;;;6.55;;
33954;SDS011;20233;50.804;7.126;2023-04-21T13:18:56;8.57;;;6.90;;
33954;SDS011;20233;50.804;7.126;2023-04-21T13:21:22;6.70;;;5.35;;
33954;SDS011;20233;50.804;7.126;2023-04-21T13:23:49;10.13;;;6.97;;
33954;SDS011;20233;50.804;7.126;2023-04-21T13:26:18;10.25;;;7.35;;
33954;SDS011;20233;50.804;7.126;2023-04-21T13:28:47;10.00;;;7.47;;
33954;SDS011;20233;50.804;7.126;2023-04-21T13:31:15;9.63;;;7.97;;
33954;SDS011;20233;50.804;7.126;2023-04-21T13:33:42;8.25;;;6.65;;
33954;SDS011;20233;50.804;7.126;2023-04-21T13:36:10;10.05;;;7.45;;
33954;SDS011;20233;50.804;7.126;2023-04-21T13:38:38;10.13;;;7.40;;
33954;SDS011;20233;50.804;7.126;2023-04-21T13:41:05;9.25;;;7.07;;
33954;SDS011;20233;50.804;7.126;2023-04-21T13:43:32;9.15;;;6.80;;
33954;SDS011;20233;50.804;7.126;2023-04-21T13:46:00;8.02;;;5.93;;
33954;SDS011;20233;50.804;7.126;2023-04-21T13:48:27;7.22;;;5.93;;
33954;SDS011;20233;50.804;7.126;2023-04-21T13:50:54;9.02;;;6.50;;
33954;SDS011;20233;50.804;7.126;2023-04-21T13:53:21;8.50;;;6.75;;
33954;SDS011;20233;50.804;7.126;2023-04-21T13:55:54;7.65;;;5.80;;
33954;SDS011;20233;50.804;7.126;2023-04-21T14:00:48;7.03;;;5.90;;
33954;SDS011;20233;50.804;7.126;2023-04-21T14:03:16;8.50;;;5.07;;
33954;SDS011;20233;50.804;7.126;2023-04-21T14:05:43;6.05;;;4.90;;
33954;SDS011;20233;50.804;7.126;2023-04-21T14:08:10;6.88;;;4.97;;
33954;SDS011;20233;50.804;7.126;2023-04-21T14:10:37;6.18;;;4.78;;
33954;SDS011;20233;50.804;7.126;2023-04-21T14:13:04;6.68;;;4.15;;
33954;SDS011;20233;50.804;7.126;2023-04-21T14:15:30;6.60;;;4.88;;
33954;SDS011;20233;50.804;7.126;2023-04-21T14:17:57;6.30;;;4.28;;
33954;SDS011;20233;50.804;7.126;2023-04-21T14:20:24;7.15;;;5.03;;
33954;SDS011;20233;50.804;7.126;2023-04-21T14:22:54;6.90;;;4.90;;
33954;SDS011;20233;50.804;7.126;2023-04-21T14:25:20;5.93;;;4.40;;
33954;SDS011;20233;50.804;7.126;2023-04-21T14:27:47;6.97;;;4.30;;
33954;SDS011;20233;50.804;7.126;2023-04-21T14:30:14;5.82;;;4.20;;
33954;SDS011;20233;50.804;7.126;2023-04-21T14:32:41;6.72;;;4.18;;
33954;SDS011;20233;50.804;7.126;2023-04-21T14:35:10;5.88;;;3.83;;
33954;SDS011;20233;50.804;7.126;2023-04-21T14:37:38;5.60;;;3.63;;
33954;SDS011;20233;50.804;7.126;2023-04-21T14:40:05;5.90;;;3.58;;
33954;SDS011;20233;50.804;7.126;2023-04-21T14:42:32;5.70;;;4.07;;
33954;SDS011;20233;50.804;7.126;2023-04-21T14:44:58;5.50;;;3.75;;